Stations météo

réclame
Mon MeteoGroup
Great Dun Fell, Grande-Bretagne (3227): Température de l'air & dewpoint: 14.10.2018 21:00:00 - 20.10.2018 21:00:00 (BST)Great Dun Fell, Grande-Bretagne (3227): Vitesse du vent & gusts: 14.10.2018 21:00:00 - 20.10.2018 21:00:00 (BST)Great Dun Fell, Grande-Bretagne (3227): Direction du vent: 14.10.2018 21:00:00 - 20.10.2018 21:00:00 (BST)
Date & Time tt [°C] td [°C] ff [km/h] ff [knt] fx [km/h] fx [knt] dd
20.10.2018 21:00:00 8,4 8,2 41 22 48 26 SW
20.10.2018 20:00:00 8,6 8,4 39 21 48 26 SW
20.10.2018 19:00:00 8,6 8,4 42 23 54 29 SSW
20.10.2018 18:00:00 8,4 8,2 44 24 54 29 SW
20.10.2018 17:00:00 8,5 8,3 48 26 63 34 SW
20.10.2018 16:00:00 8,5 8,4 57 31 76 41 SW
20.10.2018 15:00:00 8,4 8,2 67 36 80 43 SW
20.10.2018 14:00:00 8,4 8,2 70 38 83 45 WSW
20.10.2018 13:00:00 8,1 7,9 70 38 81 44 SW
20.10.2018 12:00:00 7,6 7,4 65 35 70 38 SW
20.10.2018 11:00:00 7,2 7,1 57 31 68 37 SW
20.10.2018 10:00:00 7,3 7,1 46 25 55 30 SW
20.10.2018 09:00:00 7,4 7,2 41 22 54 29 SW
20.10.2018 08:00:00 7,4 7,2 46 25 55 30 SW
20.10.2018 07:00:00 7,5 7,4 41 22 48 26 SW
20.10.2018 06:00:00 7,5 7,3 41 22 46 25 SW
20.10.2018 05:00:00 7,4 7,2 37 20 - - SW
20.10.2018 04:00:00 7,1 7,0 37 20 46 25 WSW
20.10.2018 03:00:00 7,1 7,0 39 21 - - WSW
20.10.2018 02:00:00 7,1 7,0 39 21 48 26 WSW
20.10.2018 01:00:00 7,0 6,9 39 21 46 25 WSW
20.10.2018 00:00:00 6,9 6,7 39 21 - - WSW
19.10.2018 23:00:00 6,8 6,6 44 24 46 25 WSW
19.10.2018 22:00:00 6,7 6,5 41 22 - - WSW
19.10.2018 21:00:00 6,6 6,5 37 20 52 28 WSW
19.10.2018 20:00:00 6,2 6,0 34 18 - - WSW
19.10.2018 19:00:00 6,2 6,0 35 19 46 25 WSW
19.10.2018 18:00:00 6,2 6,1 35 19 46 25 WSW
19.10.2018 17:00:00 6,2 6,1 42 23 57 31 WSW
19.10.2018 16:00:00 6,1 5,8 52 28 57 31 WSW
19.10.2018 15:00:00 6,6 5,3 42 23 54 29 WSW
19.10.2018 14:00:00 5,6 5,3 41 22 55 30 SW
19.10.2018 13:00:00 4,9 4,7 44 24 59 32 SW
19.10.2018 12:00:00 4,5 4,3 52 28 59 32 SW
19.10.2018 11:00:00 3,7 3,5 50 27 61 33 SW
19.10.2018 10:00:00 3,9 3,8 48 26 55 30 SW
19.10.2018 09:00:00 2,9 2,8 52 28 59 32 SW
19.10.2018 08:00:00 2,9 2,7 41 22 46 25 SW
19.10.2018 07:00:00 2,3 2,2 37 20 52 28 SW
19.10.2018 06:00:00 2,5 2,3 42 23 61 33 SW
19.10.2018 05:00:00 2,7 2,4 42 23 54 29 SW
19.10.2018 04:00:00 3,2 2,4 42 23 54 29 SW
19.10.2018 03:00:00 3,0 1,7 37 20 50 27 SW
19.10.2018 02:00:00 3,2 1,9 41 22 46 25 SSW
19.10.2018 01:00:00 3,1 1,3 31 17 - - SW
19.10.2018 00:00:00 2,7 1,4 37 20 - - SW
18.10.2018 23:00:00 2,9 1,4 34 18 - - SW
18.10.2018 22:00:00 2,9 2,1 34 18 - - SW
18.10.2018 21:00:00 3,2 2,5 31 17 - - SSW
18.10.2018 20:00:00 3,5 3,1 28 15 - - S
18.10.2018 19:00:00 4,0 2,3 15 8 - - S
18.10.2018 18:00:00 4,7 -1,1 8 4 - - SSW
18.10.2018 17:00:00 6,8 -1,4 8 4 - - SW
18.10.2018 16:00:00 6,3 1,2 9 5 - - WSW
18.10.2018 15:00:00 5,0 2,2 11 6 - - W
18.10.2018 14:00:00 5,7 1,5 4 2 - - SW
18.10.2018 13:00:00 5,0 0,2 5 3 - - N
18.10.2018 12:00:00 5,9 1,4 9 5 - - NE
18.10.2018 11:00:00 5,1 0,7 13 7 - - N
18.10.2018 10:00:00 4,5 0,5 16 9 - - N
18.10.2018 09:00:00 3,4 2,4 16 9 - - NNW
18.10.2018 08:00:00 2,7 2,7 21 11 - - N
18.10.2018 07:00:00 2,4 2,4 21 11 - - N
18.10.2018 06:00:00 2,0 2,0 22 12 - - N
18.10.2018 05:00:00 2,0 2,0 24 13 - - NNW
18.10.2018 04:00:00 2,9 2,0 26 14 - - NNW
18.10.2018 03:00:00 2,5 2,1 28 15 - - NNW
18.10.2018 02:00:00 2,5 2,5 28 15 - - NNW
18.10.2018 01:00:00 2,8 2,8 31 17 - - NNW
18.10.2018 00:00:00 3,0 3,0 34 18 - - NNW
17.10.2018 23:00:00 3,0 3,0 31 17 - - NNW
17.10.2018 22:00:00 3,6 3,6 31 17 - - NNW
17.10.2018 21:00:00 3,5 3,5 28 15 - - NW
17.10.2018 20:00:00 4,0 4,0 31 17 - - NW
17.10.2018 19:00:00 4,7 4,7 37 20 46 25 WNW
17.10.2018 18:00:00 5,0 5,0 29 16 - - WNW
17.10.2018 17:00:00 5,6 5,6 34 18 - - WNW
17.10.2018 16:00:00 6,2 6,2 31 17 - - WNW
17.10.2018 15:00:00 6,3 6,3 31 17 - - W
17.10.2018 14:00:00 5,9 5,9 28 15 - - WNW
17.10.2018 13:00:00 6,2 6,2 29 16 - - W
17.10.2018 12:00:00 6,1 6,1 26 14 - - WSW
17.10.2018 11:00:00 6,0 6,0 26 14 - - WSW
17.10.2018 10:00:00 5,9 5,9 29 16 - - WSW
17.10.2018 09:00:00 6,0 6,0 28 15 - - WSW
17.10.2018 08:00:00 5,8 5,8 29 16 - - WSW
17.10.2018 07:00:00 5,8 5,6 29 16 - - SW
17.10.2018 06:00:00 5,6 5,5 28 15 - - WSW
17.10.2018 05:00:00 5,9 5,8 35 19 - - SW
17.10.2018 04:00:00 5,8 5,7 35 19 46 25 SW
17.10.2018 03:00:00 6,4 6,2 41 22 52 28 WSW
17.10.2018 02:00:00 6,4 6,3 46 25 54 29 WSW
17.10.2018 01:00:00 7,6 7,4 50 27 68 37 WSW
17.10.2018 00:00:00 7,6 7,5 57 31 65 35 SW
16.10.2018 23:00:00 7,5 7,3 57 31 70 38 SW
16.10.2018 22:00:00 7,2 7,1 57 31 68 37 SW
16.10.2018 21:00:00 7,4 7,2 61 33 74 40 SW
16.10.2018 20:00:00 7,3 7,1 59 32 68 37 SW
16.10.2018 19:00:00 7,3 7,2 57 31 70 38 SW
16.10.2018 18:00:00 7,1 6,9 54 29 70 38 SW
16.10.2018 17:00:00 7,9 7,7 61 33 89 48 SW
16.10.2018 16:00:00 7,6 7,4 74 40 96 52 WSW
16.10.2018 15:00:00 7,8 7,6 80 43 94 51 WSW
16.10.2018 14:00:00 8,0 7,9 76 41 96 52 SW
16.10.2018 13:00:00 8,1 7,9 72 39 81 44 SW
16.10.2018 12:00:00 7,8 7,8 59 32 68 37 SW
16.10.2018 11:00:00 7,4 7,4 63 34 76 41 SW
16.10.2018 10:00:00 7,0 7,0 61 33 70 38 SW
16.10.2018 09:00:00 6,7 6,7 55 30 63 34 SW
16.10.2018 08:00:00 6,5 6,5 50 27 54 29 SSW
16.10.2018 07:00:00 6,4 6,4 44 24 54 29 SSW
16.10.2018 06:00:00 6,3 6,3 41 22 48 26 S
16.10.2018 05:00:00 6,4 6,4 35 19 48 26 S
16.10.2018 04:00:00 6,2 6,2 37 20 - - S
16.10.2018 03:00:00 5,4 5,4 28 15 - - S
16.10.2018 02:00:00 5,1 5,1 26 14 - - S
16.10.2018 01:00:00 4,9 4,9 29 16 68 37 S
16.10.2018 00:00:00 3,8 3,8 34 18 - - SSE
15.10.2018 23:00:00 3,5 3,5 29 16 - - SE
15.10.2018 22:00:00 3,0 3,0 29 16 - - SE
15.10.2018 21:00:00 3,2 3,2 28 15 - - ESE
15.10.2018 20:00:00 3,3 3,3 34 18 - - ESE
15.10.2018 19:00:00 3,5 3,5 35 19 - - ESE
15.10.2018 18:00:00 4,0 2,3 24 13 - - ESE
15.10.2018 17:00:00 5,5 2,7 22 12 - - E
15.10.2018 16:00:00 6,8 0,2 22 12 - - E
15.10.2018 15:00:00 7,4 1,9 16 9 - - ENE
15.10.2018 14:00:00 6,6 4,9 16 9 - - ENE
15.10.2018 13:00:00 5,2 4,4 15 8 - - ENE
15.10.2018 12:00:00 5,2 4,5 16 9 - - E
15.10.2018 11:00:00 5,6 4,6 16 9 - - E
15.10.2018 10:00:00 4,2 3,8 15 8 - - E
15.10.2018 09:00:00 3,5 3,3 15 8 - - E
15.10.2018 08:00:00 3,0 3,0 16 9 - - NE
15.10.2018 07:00:00 3,2 3,2 13 7 - - ENE
15.10.2018 06:00:00 3,1 3,1 16 9 - - ENE
15.10.2018 05:00:00 3,2 3,2 15 8 - - NE
15.10.2018 04:00:00 3,4 3,4 16 9 - - ENE
15.10.2018 03:00:00 3,4 3,4 18 10 - - ENE
15.10.2018 02:00:00 3,4 3,4 15 8 - - ENE
15.10.2018 01:00:00 3,3 3,3 16 9 - - ENE
15.10.2018 00:00:00 3,4 3,4 16 9 - - E
14.10.2018 23:00:00 3,4 3,4 11 6 - - ENE
14.10.2018 22:00:00 4,5 4,4 13 7 - - N
14.10.2018 21:00:00 4,7 4,6 15 8 - - N

tt = Température de l'air
td = dewpoint
ff = Vitesse du vent
fx = gusts
dd = Direction du vent

stations d'obs. à proximité